createdAt,value
2023-05-03T00:02:12.063Z,3.97
2023-05-03T00:04:57.390Z,3.97
2023-05-03T00:07:44.313Z,3.91
2023-05-03T00:10:29.742Z,3.90
2023-05-03T00:13:15.310Z,3.95
2023-05-03T00:16:00.223Z,3.96
2023-05-03T00:18:45.665Z,3.86
2023-05-03T00:21:32.010Z,3.80
2023-05-03T00:24:16.864Z,3.54
2023-05-03T00:27:04.289Z,3.51
2023-05-03T00:29:50.864Z,3.41
2023-05-03T00:32:36.304Z,3.47
2023-05-03T00:35:21.586Z,3.41
2023-05-03T00:38:07.065Z,3.45
2023-05-03T00:40:55.648Z,3.54
2023-05-03T00:43:41.053Z,3.44
2023-05-03T00:46:26.620Z,3.37
2023-05-03T00:49:11.978Z,3.28
2023-05-03T00:51:57.043Z,3.20
2023-05-03T00:54:42.200Z,3.29
2023-05-03T00:57:28.486Z,3.36
2023-05-03T01:00:14.610Z,3.46
2023-05-03T01:02:59.691Z,3.42
2023-05-03T01:05:48.094Z,3.37
2023-05-03T01:08:46.960Z,3.53
2023-05-03T01:11:41.252Z,3.56
2023-05-03T01:14:54.340Z,3.65
2023-05-03T01:17:45.893Z,3.58
2023-05-03T01:20:35.449Z,3.40
2023-05-03T01:23:59.681Z,3.24
2023-05-03T01:26:44.705Z,3.24
2023-05-03T01:29:29.709Z,3.21
2023-05-03T01:32:26.786Z,2.81
2023-05-03T01:35:35.646Z,2.55
2023-05-03T01:38:22.445Z,2.64
2023-05-03T01:41:11.484Z,2.42
2023-05-03T01:43:57.347Z,2.46
2023-05-03T01:46:44.148Z,2.43
2023-05-03T01:49:29.425Z,2.35
2023-05-03T01:52:14.664Z,2.39
2023-05-03T01:55:00.115Z,2.58
2023-05-03T01:57:45.268Z,2.66
2023-05-03T02:00:30.534Z,2.63
2023-05-03T02:03:15.848Z,2.67
2023-05-03T02:06:00.775Z,2.73
2023-05-03T02:08:45.778Z,2.80
2023-05-03T02:11:31.048Z,2.85
2023-05-03T02:14:15.974Z,2.55
2023-05-03T02:17:00.893Z,2.35
2023-05-03T02:19:46.104Z,2.41
2023-05-03T02:22:32.007Z,2.59
2023-05-03T02:25:17.123Z,2.51
2023-05-03T02:28:02.459Z,2.17
2023-05-03T02:30:47.431Z,2.06
2023-05-03T02:33:32.725Z,1.95
2023-05-03T02:36:17.676Z,1.92
2023-05-03T02:39:02.649Z,1.88
2023-05-03T02:41:47.892Z,1.82
2023-05-03T02:44:33.774Z,1.67
2023-05-03T02:47:19.139Z,1.97
2023-05-03T02:50:05.267Z,1.88
2023-05-03T02:52:50.481Z,1.88
2023-05-03T02:55:36.239Z,2.10
2023-05-03T02:58:21.201Z,2.19
2023-05-03T03:01:06.466Z,2.09
2023-05-03T03:03:51.733Z,1.79
2023-05-03T03:06:37.052Z,1.77
2023-05-03T03:09:21.945Z,1.61
2023-05-03T03:12:07.400Z,1.55
2023-05-03T03:14:52.734Z,1.41
2023-05-03T03:17:38.026Z,1.37
2023-05-03T03:20:23.839Z,1.36
2023-05-03T03:23:08.699Z,1.33
2023-05-03T03:25:53.977Z,1.28
2023-05-03T03:28:39.003Z,1.20
2023-05-03T03:31:24.300Z,1.24
2023-05-03T03:34:09.733Z,1.49
2023-05-03T03:36:56.363Z,1.52
2023-05-03T03:39:41.542Z,1.50
2023-05-03T03:42:27.229Z,1.33
2023-05-03T03:45:12.350Z,1.44
2023-05-03T03:47:57.464Z,1.24
2023-05-03T03:50:42.879Z,1.31
2023-05-03T03:53:28.169Z,1.34
2023-05-03T03:56:13.462Z,1.42
2023-05-03T03:58:58.449Z,1.57
2023-05-03T04:01:43.945Z,1.42
2023-05-03T04:04:29.410Z,1.30
2023-05-03T04:07:14.970Z,1.26
2023-05-03T04:10:00.554Z,1.51
2023-05-03T04:12:45.918Z,1.33
2023-05-03T04:15:31.497Z,1.53
2023-05-03T04:18:16.736Z,1.60
2023-05-03T04:21:02.365Z,1.29
2023-05-03T04:23:47.434Z,1.24
2023-05-03T04:26:33.429Z,1.22
2023-05-03T04:29:18.966Z,1.34
2023-05-03T04:32:04.538Z,1.60
2023-05-03T04:34:51.343Z,1.79
2023-05-03T04:37:39.933Z,1.94
2023-05-03T04:40:24.878Z,2.03
2023-05-03T04:43:09.966Z,2.17
2023-05-03T04:45:54.741Z,2.24
2023-05-03T04:48:40.093Z,2.39
2023-05-03T04:51:25.379Z,2.49
2023-05-03T04:54:11.054Z,2.61
2023-05-03T04:56:56.410Z,2.58
2023-05-03T04:59:41.890Z,2.52
2023-05-03T05:02:27.448Z,2.67
2023-05-03T05:05:12.576Z,2.59
2023-05-03T05:07:58.091Z,2.85
2023-05-03T05:10:43.439Z,3.02
2023-05-03T05:13:28.988Z,3.17
2023-05-03T05:16:14.458Z,3.35
2023-05-03T05:18:59.700Z,3.50
2023-05-03T05:21:45.895Z,3.66
2023-05-03T05:24:31.022Z,3.83
2023-05-03T05:27:16.116Z,3.87
2023-05-03T05:30:01.591Z,4.02
2023-05-03T05:32:47.105Z,4.16
2023-05-03T05:35:33.718Z,4.30
2023-05-03T05:38:18.807Z,4.52
2023-05-03T05:41:05.256Z,4.63
2023-05-03T05:43:51.509Z,4.86
2023-05-03T05:46:36.884Z,5.08
2023-05-03T05:49:22.284Z,5.37
2023-05-03T05:52:06.976Z,5.59
2023-05-03T05:54:51.970Z,5.80
2023-05-03T05:57:37.253Z,5.89
2023-05-03T06:00:22.775Z,6.12
2023-05-03T06:03:08.070Z,6.28
2023-05-03T06:05:53.377Z,6.51
2023-05-03T06:08:38.758Z,6.62
2023-05-03T06:11:24.076Z,6.86
2023-05-03T06:14:09.111Z,7.06
2023-05-03T06:16:54.740Z,7.22
2023-05-03T06:19:40.009Z,7.36
2023-05-03T06:22:25.660Z,7.44
2023-05-03T06:25:10.777Z,7.80
2023-05-03T06:27:56.165Z,7.97
2023-05-03T06:30:41.644Z,7.92
2023-05-03T06:33:26.836Z,7.80
2023-05-03T06:36:12.153Z,7.91
2023-05-03T06:38:57.470Z,8.00
2023-05-03T06:41:42.896Z,8.18
2023-05-03T06:44:28.333Z,8.31
2023-05-03T06:47:13.780Z,8.44
2023-05-03T06:49:59.088Z,8.29
2023-05-03T06:52:44.298Z,8.57
2023-05-03T06:55:29.632Z,8.61
2023-05-03T06:58:14.992Z,8.82
2023-05-03T07:01:01.810Z,8.95
2023-05-03T07:03:47.191Z,9.13
2023-05-03T07:06:40.753Z,8.90
2023-05-03T07:09:42.253Z,8.73
2023-05-03T07:12:28.492Z,8.90
2023-05-03T07:15:14.066Z,9.27
2023-05-03T07:17:58.846Z,9.68
2023-05-03T07:20:44.244Z,9.85
2023-05-03T07:23:28.946Z,9.72
2023-05-03T07:26:14.540Z,9.83
2023-05-03T07:28:59.927Z,10.10
2023-05-03T07:31:45.056Z,10.44
2023-05-03T07:34:30.956Z,10.34
2023-05-03T07:37:16.327Z,10.03
2023-05-03T07:40:01.403Z,9.86
2023-05-03T07:42:46.462Z,9.83
2023-05-03T07:45:31.888Z,9.90
2023-05-03T07:48:17.284Z,10.51
2023-05-03T07:51:04.705Z,11.12
2023-05-03T07:53:50.152Z,10.74
2023-05-03T07:56:34.971Z,10.57
2023-05-03T07:59:20.449Z,10.48
2023-05-03T08:02:06.507Z,10.38
2023-05-03T08:04:52.047Z,10.68
2023-05-03T08:07:37.342Z,10.84
2023-05-03T08:10:22.774Z,11.11
2023-05-03T08:13:07.926Z,11.01
2023-05-03T08:15:53.261Z,11.55
2023-05-03T08:18:38.389Z,11.16
2023-05-03T08:21:23.234Z,11.48
2023-05-03T08:24:08.587Z,11.40
2023-05-03T08:26:53.855Z,11.30
2023-05-03T08:29:39.320Z,11.50
2023-05-03T08:32:24.292Z,11.06
2023-05-03T08:35:10.040Z,11.45
2023-05-03T08:37:55.346Z,11.43
2023-05-03T08:40:40.324Z,11.99
2023-05-03T08:43:27.943Z,12.27
2023-05-03T08:46:13.484Z,12.44
2023-05-03T08:48:58.989Z,13.00
2023-05-03T08:51:46.189Z,13.14
2023-05-03T08:54:31.302Z,12.02
2023-05-03T08:57:17.545Z,12.43
2023-05-03T09:00:03.980Z,12.28
2023-05-03T09:02:49.613Z,12.61
2023-05-03T09:05:36.496Z,12.24
2023-05-03T09:08:21.862Z,12.60
2023-05-03T09:11:21.008Z,12.32
2023-05-03T09:14:09.096Z,12.87
2023-05-03T09:16:54.690Z,13.43
2023-05-03T09:19:53.546Z,13.65
2023-05-03T09:22:51.017Z,13.89
2023-05-03T09:25:42.791Z,12.88
2023-05-03T09:28:27.869Z,12.88
2023-05-03T09:31:13.616Z,13.21
2023-05-03T09:33:59.043Z,14.20
2023-05-03T09:36:46.854Z,13.58
2023-05-03T09:39:32.514Z,13.67
2023-05-03T09:42:19.063Z,14.20
2023-05-03T09:45:05.295Z,13.86
2023-05-03T09:47:50.709Z,13.76
2023-05-03T09:50:36.616Z,13.59
2023-05-03T09:53:22.693Z,13.53
2023-05-03T09:56:11.504Z,13.68
2023-05-03T09:58:56.832Z,13.83
2023-05-03T10:01:41.991Z,13.08
2023-05-03T10:04:29.001Z,13.11
2023-05-03T10:07:17.918Z,13.23
2023-05-03T10:10:03.340Z,13.17
2023-05-03T10:12:49.325Z,13.72
2023-05-03T10:15:37.510Z,13.21
2023-05-03T10:18:26.574Z,13.74
2023-05-03T10:21:20.662Z,13.86
2023-05-03T10:24:13.738Z,14.21
2023-05-03T10:27:00.010Z,13.56
2023-05-03T10:29:45.755Z,14.01
2023-05-03T10:32:35.850Z,13.85
2023-05-03T10:35:21.465Z,13.78
2023-05-03T10:38:19.902Z,13.27
2023-05-03T10:41:05.360Z,13.11
2023-05-03T10:43:50.763Z,13.99
2023-05-03T10:46:35.928Z,14.39
2023-05-03T10:49:23.288Z,14.74
2023-05-03T10:52:39.680Z,14.86
2023-05-03T10:55:24.990Z,14.30
2023-05-03T10:58:14.912Z,14.00
2023-05-03T11:01:03.282Z,13.99
2023-05-03T11:04:12.091Z,13.30
2023-05-03T11:06:57.129Z,13.43
2023-05-03T11:09:42.418Z,13.62
2023-05-03T11:12:27.969Z,13.57
2023-05-03T11:15:13.327Z,13.43
2023-05-03T11:17:59.147Z,13.98
2023-05-03T11:20:44.496Z,14.17
2023-05-03T11:23:29.849Z,14.26
2023-05-03T11:26:15.159Z,14.41
2023-05-03T11:29:00.324Z,14.10
2023-05-03T11:31:45.850Z,14.16
2023-05-03T11:34:31.072Z,14.67
2023-05-03T11:37:16.441Z,15.31
2023-05-03T11:40:01.897Z,14.79
2023-05-03T11:43:06.235Z,14.64
2023-05-03T11:45:54.711Z,14.94
2023-05-03T11:48:40.321Z,14.52
2023-05-03T11:51:25.889Z,14.94
2023-05-03T11:54:24.214Z,14.79
2023-05-03T11:57:13.499Z,14.60
2023-05-03T12:00:12.150Z,15.97
2023-05-03T12:02:59.486Z,15.60
2023-05-03T12:05:46.192Z,16.38
2023-05-03T12:08:35.266Z,16.25
2023-05-03T12:11:23.310Z,17.08
2023-05-03T12:14:11.254Z,18.11
2023-05-03T12:16:57.159Z,17.04
2023-05-03T12:19:43.789Z,17.96
2023-05-03T12:22:30.661Z,17.89
2023-05-03T12:25:16.199Z,17.29
2023-05-03T12:31:00.247Z,16.05
2023-05-03T12:34:01.634Z,16.00
2023-05-03T12:36:53.918Z,17.35
2023-05-03T12:39:40.669Z,17.89
2023-05-03T12:45:13.065Z,17.16
2023-05-03T12:47:59.221Z,17.47
2023-05-03T12:50:45.542Z,17.60
2023-05-03T12:53:31.413Z,17.77
2023-05-03T12:56:17.059Z,19.04
2023-05-03T12:59:34.319Z,19.31
2023-05-03T13:05:01.010Z,17.20
2023-05-03T13:07:52.306Z,17.72
2023-05-03T13:10:41.432Z,18.38
2023-05-03T13:13:27.200Z,18.81
2023-05-03T13:16:12.080Z,18.89
2023-05-03T13:18:57.317Z,17.56
2023-05-03T13:21:42.766Z,17.82
2023-05-03T13:24:28.092Z,17.50
2023-05-03T13:27:13.078Z,17.05
2023-05-03T13:30:00.440Z,16.99
2023-05-03T13:32:45.451Z,16.65
2023-05-03T13:35:30.772Z,17.21
2023-05-03T13:38:16.451Z,16.91
2023-05-03T13:41:06.545Z,17.41
2023-05-03T13:43:51.418Z,17.32
2023-05-03T13:46:37.748Z,17.64
2023-05-03T13:49:22.776Z,17.47
2023-05-03T13:52:07.874Z,17.16
2023-05-03T13:54:52.710Z,16.38
2023-05-03T13:57:37.742Z,16.75
2023-05-03T14:00:22.905Z,16.68
2023-05-03T14:03:08.318Z,16.98
2023-05-03T14:05:53.528Z,16.56
2023-05-03T14:08:38.440Z,15.97
2023-05-03T14:11:24.216Z,16.25
2023-05-03T14:14:09.079Z,16.05
2023-05-03T14:16:54.010Z,16.06
2023-05-03T14:19:39.261Z,16.32
2023-05-03T14:22:24.323Z,16.28
2023-05-03T14:25:09.750Z,16.77
2023-05-03T14:27:55.503Z,16.82
2023-05-03T14:30:40.901Z,16.98
2023-05-03T14:33:26.148Z,17.02
2023-05-03T14:36:11.598Z,17.18
2023-05-03T14:38:56.819Z,17.22
2023-05-03T14:41:44.187Z,16.98
2023-05-03T14:44:29.448Z,16.45
2023-05-03T14:47:14.710Z,16.34
2023-05-03T14:50:00.473Z,16.55
2023-05-03T14:52:45.343Z,16.48
2023-05-03T14:55:30.345Z,15.99
2023-05-03T14:58:15.859Z,16.49
2023-05-03T15:01:01.167Z,16.72
2023-05-03T15:03:46.826Z,16.70
2023-05-03T15:06:32.117Z,16.66
2023-05-03T15:09:17.694Z,16.17
2023-05-03T15:12:02.633Z,16.48
2023-05-03T15:14:47.515Z,16.54
2023-05-03T15:17:32.896Z,16.12
2023-05-03T15:20:18.022Z,16.14
2023-05-03T15:23:04.613Z,16.28
2023-05-03T15:25:49.642Z,16.71
2023-05-03T15:28:35.108Z,15.93
2023-05-03T15:31:20.673Z,15.85
2023-05-03T15:34:06.188Z,16.43
2023-05-03T15:36:51.328Z,15.83
2023-05-03T15:39:36.746Z,15.71
2023-05-03T15:42:23.351Z,15.87
2023-05-03T15:45:09.089Z,15.88
2023-05-03T15:47:57.393Z,15.90
2023-05-03T15:50:42.841Z,15.96
2023-05-03T15:53:28.123Z,16.32
2023-05-03T15:56:13.439Z,16.45
2023-05-03T15:58:58.394Z,16.50
2023-05-03T16:01:43.854Z,16.56
2023-05-03T16:04:29.396Z,16.94
2023-05-03T16:07:18.149Z,16.63
2023-05-03T16:10:03.738Z,16.25
2023-05-03T16:12:49.677Z,16.47
2023-05-03T16:15:35.229Z,16.47
2023-05-03T16:18:20.304Z,16.53
2023-05-03T16:21:05.260Z,15.99
2023-05-03T16:23:51.892Z,16.19
2023-05-03T16:26:37.095Z,16.24
2023-05-03T16:29:22.410Z,15.90
2023-05-03T16:32:07.389Z,16.27
2023-05-03T16:34:52.746Z,16.48
2023-05-03T16:37:37.839Z,16.28
2023-05-03T16:40:23.069Z,15.96
2023-05-03T16:43:08.478Z,15.78
2023-05-03T16:46:01.052Z,15.87
2023-05-03T16:48:46.517Z,15.82
2023-05-03T16:51:33.371Z,15.66
2023-05-03T16:54:18.373Z,15.69
2023-05-03T16:57:04.246Z,15.60
2023-05-03T16:59:49.171Z,15.48
2023-05-03T17:02:38.031Z,15.47
2023-05-03T17:05:23.614Z,15.60
2023-05-03T17:08:08.848Z,15.73
2023-05-03T17:10:54.328Z,15.74
2023-05-03T17:13:41.023Z,15.64
2023-05-03T17:16:26.320Z,15.50
2023-05-03T17:19:11.483Z,15.47
2023-05-03T17:21:57.026Z,15.19
2023-05-03T17:24:42.197Z,15.52
2023-05-03T17:27:27.271Z,15.49
2023-05-03T17:30:12.785Z,15.78
2023-05-03T17:32:58.374Z,15.67
2023-05-03T17:35:44.014Z,15.61
2023-05-03T17:38:29.100Z,15.52
2023-05-03T17:41:14.687Z,15.66
2023-05-03T17:43:59.781Z,15.53
2023-05-03T17:46:45.270Z,15.47
2023-05-03T17:49:33.133Z,15.45
2023-05-03T17:52:18.457Z,15.39
2023-05-03T17:55:03.749Z,15.35
2023-05-03T17:57:49.194Z,15.08
2023-05-03T18:00:34.222Z,14.72
2023-05-03T18:03:19.794Z,14.65
2023-05-03T18:06:10.525Z,14.57
2023-05-03T18:08:55.984Z,14.45
2023-05-03T18:11:41.387Z,14.48
2023-05-03T18:14:26.757Z,14.47
2023-05-03T18:17:12.079Z,14.43
2023-05-03T18:19:57.407Z,14.35
2023-05-03T18:22:42.685Z,14.31
2023-05-03T18:25:28.016Z,14.31
2023-05-03T18:28:13.427Z,14.15
2023-05-03T18:30:58.339Z,14.10
2023-05-03T18:33:43.736Z,14.01
2023-05-03T18:36:29.111Z,13.85
2023-05-03T18:39:14.034Z,13.87
2023-05-03T18:41:59.413Z,13.94
2023-05-03T18:44:44.252Z,13.88
2023-05-03T18:47:29.314Z,13.88
2023-05-03T18:50:14.982Z,13.78
2023-05-03T18:52:59.974Z,13.71
2023-05-03T18:55:45.349Z,13.56
2023-05-03T18:58:31.353Z,13.51
2023-05-03T19:01:16.728Z,13.45
2023-05-03T19:04:01.884Z,13.43
2023-05-03T19:06:47.194Z,13.21
2023-05-03T19:09:31.988Z,13.06
2023-05-03T19:12:16.888Z,13.09
2023-05-03T19:15:02.263Z,13.07
2023-05-03T19:17:47.781Z,13.03
2023-05-03T19:20:33.145Z,12.91
2023-05-03T19:23:18.115Z,12.82
2023-05-03T19:26:03.380Z,12.89
2023-05-03T19:28:48.507Z,12.84
2023-05-03T19:31:35.158Z,12.79
2023-05-03T19:34:20.133Z,12.57
2023-05-03T19:37:05.571Z,12.54
2023-05-03T19:39:50.988Z,12.61
2023-05-03T19:42:35.986Z,12.57
2023-05-03T19:45:21.448Z,12.43
2023-05-03T19:48:06.771Z,12.24
2023-05-03T19:50:52.001Z,12.26
2023-05-03T19:53:37.302Z,12.31
2023-05-03T19:56:22.916Z,12.27
2023-05-03T19:59:09.106Z,12.16
2023-05-03T20:01:54.652Z,12.25
2023-05-03T20:04:39.920Z,12.10
2023-05-03T20:07:25.151Z,11.98
2023-05-03T20:10:10.630Z,11.96
2023-05-03T20:12:55.797Z,11.93
2023-05-03T20:15:41.223Z,11.81
2023-05-03T20:18:26.477Z,11.76
2023-05-03T20:21:11.870Z,11.79
2023-05-03T20:23:57.565Z,11.83
2023-05-03T20:26:42.698Z,11.64
2023-05-03T20:29:27.840Z,11.58
2023-05-03T20:32:13.071Z,11.45
2023-05-03T20:34:58.420Z,11.50
2023-05-03T20:37:44.142Z,11.40
2023-05-03T20:40:29.573Z,11.41
2023-05-03T20:43:14.950Z,11.46
2023-05-03T20:45:59.968Z,11.29
2023-05-03T20:48:45.200Z,11.11
2023-05-03T20:51:31.151Z,11.19
2023-05-03T20:54:16.352Z,11.13
2023-05-03T20:57:01.833Z,11.18
2023-05-03T20:59:46.935Z,11.17
2023-05-03T21:02:32.552Z,11.25
2023-05-03T21:05:17.713Z,11.16
2023-05-03T21:08:02.739Z,11.11
2023-05-03T21:10:48.173Z,11.12
2023-05-03T21:13:33.270Z,11.05
2023-05-03T21:16:18.663Z,10.97
2023-05-03T21:19:04.190Z,11.07
2023-05-03T21:21:49.343Z,10.98
2023-05-03T21:24:35.084Z,10.91
2023-05-03T21:27:20.580Z,10.74
2023-05-03T21:30:06.789Z,10.69
2023-05-03T21:32:52.015Z,10.65
2023-05-03T21:35:37.452Z,10.77
2023-05-03T21:38:22.272Z,10.62
2023-05-03T21:41:07.993Z,10.64
2023-05-03T21:43:52.996Z,10.77
2023-05-03T21:46:40.790Z,10.65
2023-05-03T21:49:26.277Z,10.53
2023-05-03T21:52:11.646Z,10.52
2023-05-03T21:54:57.123Z,10.60
2023-05-03T21:57:42.594Z,10.38
2023-05-03T22:00:27.923Z,10.43
2023-05-03T22:03:12.850Z,10.43
2023-05-03T22:05:58.038Z,10.28
2023-05-03T22:08:42.963Z,10.35
2023-05-03T22:11:28.662Z,10.24
2023-05-03T22:14:14.052Z,10.25
2023-05-03T22:16:59.471Z,10.18
2023-05-03T22:19:44.830Z,10.02
2023-05-03T22:22:29.916Z,9.80
2023-05-03T22:25:22.635Z,9.72
2023-05-03T22:28:07.594Z,9.68
2023-05-03T22:30:52.984Z,9.61
2023-05-03T22:33:38.397Z,9.20
2023-05-03T22:36:23.694Z,9.04
2023-05-03T22:39:09.308Z,8.75
2023-05-03T22:41:54.708Z,8.89
2023-05-03T22:44:39.644Z,8.91
2023-05-03T22:47:25.065Z,8.98
2023-05-03T22:50:10.888Z,9.07
2023-05-03T22:52:56.303Z,9.08
2023-05-03T22:55:41.562Z,9.13
2023-05-03T22:58:26.698Z,9.25
2023-05-03T23:01:11.665Z,9.27
2023-05-03T23:03:57.533Z,9.21
2023-05-03T23:06:42.818Z,8.94
2023-05-03T23:09:28.114Z,8.60
2023-05-03T23:12:12.942Z,8.59
2023-05-03T23:14:58.208Z,8.30
2023-05-03T23:17:43.697Z,8.05
2023-05-03T23:20:29.329Z,8.03
2023-05-03T23:23:14.579Z,7.97
2023-05-03T23:25:59.930Z,7.96
2023-05-03T23:28:45.332Z,7.99
2023-05-03T23:31:32.968Z,8.15
2023-05-03T23:34:19.566Z,8.17
2023-05-03T23:37:04.987Z,8.04
2023-05-03T23:39:50.110Z,7.50
2023-05-03T23:42:35.399Z,7.44
2023-05-03T23:45:20.654Z,7.60
2023-05-03T23:48:06.264Z,7.75
2023-05-03T23:50:51.393Z,7.75
2023-05-03T23:53:36.793Z,7.78
2023-05-03T23:56:22.125Z,7.88
2023-05-03T23:59:06.996Z,7.78
